Time,TemperatureF,DewpointF,PressureIn,WindDirection,WindDirectionDegrees,WindSpeedMPH,WindSpeedGustMPH,Humidity,HourlyPrecipIn,Conditions,Clouds,dailyrainin,SoftwareType,DateUTC
2013-01-05 00:00:00,36.0,28.6,29.58,North,-999,-999.0,-999.0,66,-99.99,,,-99.99,Homeseer,2013-01-05 05:00:00,
2013-01-05 00:02:00,36.2,28.6,29.59,North,-999,-999.0,-999.0,65,-99.99,,,-99.99,Homeseer,2013-01-05 05:02:00,
2013-01-05 00:03:00,36.3,28.9,29.59,North,-999,-999.0,-999.0,66,-99.99,,,-99.99,Homeseer,2013-01-05 05:03:00,
2013-01-05 00:08:00,36.4,29.0,29.59,North,-999,-999.0,-999.0,66,-99.99,,,-99.99,Homeseer,2013-01-05 05:08:00,
2013-01-05 00:13:00,36.5,28.9,29.59,North,-999,-999.0,-999.0,65,-99.99,,,-99.99,Homeseer,2013-01-05 05:13:00,
2013-01-05 00:18:00,36.4,29.0,29.58,North,-999,-999.0,-999.0,66,-99.99,,,-99.99,Homeseer,2013-01-05 05:18:00,
2013-01-05 00:23:00,36.4,28.8,29.59,North,-999,-999.0,-999.0,65,-99.99,,,-99.99,Homeseer,2013-01-05 05:23:00,
2013-01-05 00:28:00,36.3,28.7,29.59,North,-999,-999.0,-999.0,65,-99.99,,,-99.99,Homeseer,2013-01-05 05:28:00,
2013-01-05 00:33:00,36.4,28.8,29.59,North,-999,-999.0,-999.0,65,-99.99,,,-99.99,Homeseer,2013-01-05 05:33:00,
2013-01-05 00:38:00,36.5,28.9,29.59,North,-999,-999.0,-999.0,65,-99.99,,,-99.99,Homeseer,2013-01-05 05:38:00,
2013-01-05 00:43:00,37.1,29.7,29.59,North,-999,-999.0,-999.0,66,-99.99,,,-99.99,Homeseer,2013-01-05 05:43:00,
2013-01-05 00:48:00,37.2,29.2,29.59,North,-999,-999.0,-999.0,64,-99.99,,,-99.99,Homeseer,2013-01-05 05:48:00,
2013-01-05 00:53:00,36.8,28.6,29.58,North,-999,-999.0,-999.0,63,-99.99,,,-99.99,Homeseer,2013-01-05 05:53:00,
2013-01-05 00:58:00,36.8,29.1,29.58,North,-999,-999.0,-999.0,65,-99.99,,,-99.99,Homeseer,2013-01-05 05:58:00,
2013-01-05 01:03:00,37.0,29.1,29.59,North,-999,-999.0,-999.0,64,-99.99,,,-99.99,Homeseer,2013-01-05 06:03:00,
2013-01-05 01:08:00,37.3,29.3,29.59,North,-999,-999.0,-999.0,64,-99.99,,,-99.99,Homeseer,2013-01-05 06:08:00,
2013-01-05 01:09:00,37.4,29.4,29.59,North,-999,-999.0,-999.0,64,-99.99,,,-99.99,Homeseer,2013-01-05 06:09:00,
2013-01-05 01:14:00,37.3,29.6,29.59,North,-999,-999.0,-999.0,65,-99.99,,,-99.99,Homeseer,2013-01-05 06:14:00,
2013-01-05 01:19:00,37.3,29.6,29.59,North,-999,-999.0,-999.0,65,-99.99,,,-99.99,Homeseer,2013-01-05 06:19:00,
2013-01-05 01:24:00,37.2,29.0,29.60,North,-999,-999.0,-999.0,63,-99.99,,,-99.99,Homeseer,2013-01-05 06:24:00,
2013-01-05 01:29:00,37.3,29.3,29.60,North,-999,-999.0,-999.0,64,-99.99,,,-99.99,Homeseer,2013-01-05 06:29:00,
2013-01-05 01:34:00,37.4,29.7,29.60,North,-999,-999.0,-999.0,65,-99.99,,,-99.99,Homeseer,2013-01-05 06:34:00,
2013-01-05 01:39:00,37.5,29.5,29.61,North,-999,-999.0,-999.0,64,-99.99,,,-99.99,Homeseer,2013-01-05 06:39:00,
2013-01-05 01:44:00,36.8,28.9,29.61,North,-999,-999.0,-999.0,64,-99.99,,,-99.99,Homeseer,2013-01-05 06:44:00,
2013-01-05 01:49:00,37.2,29.2,29.61,North,-999,-999.0,-999.0,64,-99.99,,,-99.99,Homeseer,2013-01-05 06:49:00,
2013-01-05 01:54:00,37.2,29.2,29.62,North,-999,-999.0,-999.0,64,-99.99,,,-99.99,Homeseer,2013-01-05 06:54:00,
2013-01-05 01:59:00,37.3,29.6,29.62,North,-999,-999.0,-999.0,65,-99.99,,,-99.99,Homeseer,2013-01-05 06:59:00,
2013-01-05 02:04:00,37.2,29.2,29.62,North,-999,-999.0,-999.0,64,-99.99,,,-99.99,Homeseer,2013-01-05 07:04:00,
2013-01-05 02:09:00,37.4,29.4,29.63,North,-999,-999.0,-999.0,64,-99.99,,,-99.99,Homeseer,2013-01-05 07:09:00,
2013-01-05 02:14:00,37.3,29.6,29.63,North,-999,-999.0,-999.0,65,-99.99,,,-99.99,Homeseer,2013-01-05 07:14:00,
2013-01-05 02:19:00,37.3,29.3,29.63,North,-999,-999.0,-999.0,64,-99.99,,,-99.99,Homeseer,2013-01-05 07:19:00,
2013-01-05 02:24:00,37.0,29.6,29.63,North,-999,-999.0,-999.0,66,-99.99,,,-99.99,Homeseer,2013-01-05 07:24:00,
2013-01-05 02:29:00,37.3,29.6,29.63,North,-999,-999.0,-999.0,65,-99.99,,,-99.99,Homeseer,2013-01-05 07:29:00,
2013-01-05 02:34:00,37.6,29.6,29.63,North,-999,-999.0,-999.0,64,-99.99,,,-99.99,Homeseer,2013-01-05 07:34:00,
2013-01-05 02:39:00,37.5,29.3,29.63,North,-999,-999.0,-999.0,63,-99.99,,,-99.99,Homeseer,2013-01-05 07:39:00,
2013-01-05 02:44:00,37.4,29.4,29.64,North,-999,-999.0,-999.0,64,-99.99,,,-99.99,Homeseer,2013-01-05 07:44:00,
2013-01-05 02:49:00,37.5,29.8,29.64,North,-999,-999.0,-999.0,65,-99.99,,,-99.99,Homeseer,2013-01-05 07:49:00,
2013-01-05 02:54:00,37.7,30.0,29.63,North,-999,-999.0,-999.0,65,-99.99,,,-99.99,Homeseer,2013-01-05 07:54:00,
2013-01-05 02:59:00,37.6,29.6,29.63,North,-999,-999.0,-999.0,64,-99.99,,,-99.99,Homeseer,2013-01-05 07:59:00,
2013-01-05 03:04:00,37.3,29.6,29.63,North,-999,-999.0,-999.0,65,-99.99,,,-99.99,Homeseer,2013-01-05 08:04:00,
2013-01-05 03:09:00,37.1,29.7,29.64,North,-999,-999.0,-999.0,66,-99.99,,,-99.99,Homeseer,2013-01-05 08:09:00,
2013-01-05 03:14:00,36.7,29.3,29.65,North,-999,-999.0,-999.0,66,-99.99,,,-99.99,Homeseer,2013-01-05 08:14:00,
2013-01-05 03:19:00,36.5,29.4,29.65,North,-999,-999.0,-999.0,67,-99.99,,,-99.99,Homeseer,2013-01-05 08:19:00,
2013-01-05 03:24:00,36.6,29.7,29.65,North,-999,-999.0,-999.0,68,-99.99,,,-99.99,Homeseer,2013-01-05 08:24:00,
2013-01-05 03:29:00,36.5,29.4,29.65,North,-999,-999.0,-999.0,67,-99.99,,,-99.99,Homeseer,2013-01-05 08:29:00,
2013-01-05 03:34:00,36.2,29.9,29.66,North,-999,-999.0,-999.0,70,-99.99,,,-99.99,Homeseer,2013-01-05 08:34:00,
2013-01-05 03:39:00,35.8,29.2,29.65,North,-999,-999.0,-999.0,69,-99.99,,,-99.99,Homeseer,2013-01-05 08:39:00,
2013-01-05 03:44:00,36.3,29.7,29.66,North,-999,-999.0,-999.0,69,-99.99,,,-99.99,Homeseer,2013-01-05 08:44:00,
2013-01-05 03:49:00,36.3,30.2,29.66,North,-999,-999.0,-999.0,71,-99.99,,,-99.99,Homeseer,2013-01-05 08:49:00,
2013-01-05 03:54:00,36.3,30.2,29.67,North,-999,-999.0,-999.0,71,-99.99,,,-99.99,Homeseer,2013-01-05 08:54:00,
2013-01-05 03:59:00,36.0,29.9,29.67,North,-999,-999.0,-999.0,71,-99.99,,,-99.99,Homeseer,2013-01-05 08:59:00,
2013-01-05 04:04:00,36.0,29.7,29.67,North,-999,-999.0,-999.0,70,-99.99,,,-99.99,Homeseer,2013-01-05 09:04:00,
2013-01-05 04:09:00,36.2,29.9,29.67,North,-999,-999.0,-999.0,70,-99.99,,,-99.99,Homeseer,2013-01-05 09:09:00,
2013-01-05 04:14:00,36.5,29.9,29.68,North,-999,-999.0,-999.0,69,-99.99,,,-99.99,Homeseer,2013-01-05 09:14:00,
2013-01-05 04:19:00,36.7,30.1,29.68,North,-999,-999.0,-999.0,69,-99.99,,,-99.99,Homeseer,2013-01-05 09:19:00,
2013-01-05 04:24:00,36.7,29.8,29.67,North,-999,-999.0,-999.0,68,-99.99,,,-99.99,Homeseer,2013-01-05 09:24:00,
2013-01-05 04:29:00,36.7,30.1,29.68,North,-999,-999.0,-999.0,69,-99.99,,,-99.99,Homeseer,2013-01-05 09:29:00,
2013-01-05 04:34:00,36.5,30.1,29.68,North,-999,-999.0,-999.0,70,-99.99,,,-99.99,Homeseer,2013-01-05 09:34:00,
2013-01-05 04:39:00,36.5,30.1,29.69,North,-999,-999.0,-999.0,70,-99.99,,,-99.99,Homeseer,2013-01-05 09:39:00,
2013-01-05 04:44:00,36.4,30.3,29.69,North,-999,-999.0,-999.0,71,-99.99,,,-99.99,Homeseer,2013-01-05 09:44:00,
2013-01-05 04:49:00,36.4,30.3,29.70,North,-999,-999.0,-999.0,71,-99.99,,,-99.99,Homeseer,2013-01-05 09:49:00,
2013-01-05 04:54:00,36.3,30.2,29.70,North,-999,-999.0,-999.0,71,-99.99,,,-99.99,Homeseer,2013-01-05 09:54:00,
2013-01-05 04:59:00,35.9,29.8,29.71,North,-999,-999.0,-999.0,71,-99.99,,,-99.99,Homeseer,2013-01-05 09:59:00,
2013-01-05 05:04:00,35.8,29.7,29.71,North,-999,-999.0,-999.0,71,-99.99,,,-99.99,Homeseer,2013-01-05 10:04:00,
2013-01-05 05:10:00,35.3,29.7,29.71,North,-999,-999.0,-999.0,73,-99.99,,,-99.99,Homeseer,2013-01-05 10:10:00,
2013-01-05 05:15:00,35.0,29.2,29.71,North,-999,-999.0,-999.0,72,-99.99,,,-99.99,Homeseer,2013-01-05 10:15:00,
2013-01-05 05:21:00,34.6,29.0,29.72,North,-999,-999.0,-999.0,73,-99.99,,,-99.99,Homeseer,2013-01-05 10:21:00,
2013-01-05 05:26:00,34.0,28.7,29.73,North,-999,-999.0,-999.0,74,-99.99,,,-99.99,Homeseer,2013-01-05 10:26:00,
2013-01-05 05:31:00,33.8,28.7,29.73,North,-999,-999.0,-999.0,75,-99.99,,,-99.99,Homeseer,2013-01-05 10:31:00,
2013-01-05 05:37:00,33.9,28.6,29.74,North,-999,-999.0,-999.0,74,-99.99,,,-99.99,Homeseer,2013-01-05 10:37:00,
2013-01-05 05:43:00,33.7,28.6,29.75,North,-999,-999.0,-999.0,75,-99.99,,,-99.99,Homeseer,2013-01-05 10:43:00,
2013-01-05 05:48:00,33.4,28.4,29.75,North,-999,-999.0,-999.0,75,-99.99,,,-99.99,Homeseer,2013-01-05 10:48:00,
2013-01-05 05:53:00,33.1,28.3,29.75,North,-999,-999.0,-999.0,76,-99.99,,,-99.99,Homeseer,2013-01-05 10:53:00,
2013-01-05 05:58:00,33.1,28.3,29.76,North,-999,-999.0,-999.0,76,-99.99,,,-99.99,Homeseer,2013-01-05 10:58:00,
2013-01-05 06:03:00,33.2,28.2,29.76,North,-999,-999.0,-999.0,75,-99.99,,,-99.99,Homeseer,2013-01-05 11:03:00,
2013-01-05 06:09:00,32.7,27.9,29.77,North,-999,-999.0,-999.0,76,-99.99,,,-99.99,Homeseer,2013-01-05 11:09:00,
2013-01-05 06:14:00,32.6,28.0,29.77,North,-999,-999.0,-999.0,77,-99.99,,,-99.99,Homeseer,2013-01-05 11:14:00,
2013-01-05 06:20:00,32.7,27.9,29.77,North,-999,-999.0,-999.0,76,-99.99,,,-99.99,Homeseer,2013-01-05 11:20:00,
2013-01-05 06:25:00,32.4,27.8,29.78,North,-999,-999.0,-999.0,77,-99.99,,,-99.99,Homeseer,2013-01-05 11:25:00,
2013-01-05 06:31:00,32.2,27.7,29.78,North,-999,-999.0,-999.0,77,-99.99,,,-99.99,Homeseer,2013-01-05 11:31:00,
2013-01-05 06:36:00,31.9,27.6,29.78,North,-999,-999.0,-999.0,78,-99.99,,,-99.99,Homeseer,2013-01-05 11:36:00,
2013-01-05 06:41:00,31.4,27.1,29.79,North,-999,-999.0,-999.0,78,-99.99,,,-99.99,Homeseer,2013-01-05 11:41:00,
2013-01-05 06:46:00,31.1,27.0,29.79,North,-999,-999.0,-999.0,79,-99.99,,,-99.99,Homeseer,2013-01-05 11:46:00,
2013-01-05 06:52:00,30.9,26.8,29.80,North,-999,-999.0,-999.0,79,-99.99,,,-99.99,Homeseer,2013-01-05 11:52:00,
2013-01-05 06:57:00,30.9,26.8,29.81,North,-999,-999.0,-999.0,79,-99.99,,,-99.99,Homeseer,2013-01-05 11:57:00,
2013-01-05 07:02:00,30.9,27.0,29.81,North,-999,-999.0,-999.0,80,-99.99,,,-99.99,Homeseer,2013-01-05 12:02:00,
2013-01-05 07:07:00,30.9,27.0,29.81,North,-999,-999.0,-999.0,80,-99.99,,,-99.99,Homeseer,2013-01-05 12:07:00,
2013-01-05 07:12:00,30.9,27.0,29.81,North,-999,-999.0,-999.0,80,-99.99,,,-99.99,Homeseer,2013-01-05 12:12:00,
2013-01-05 07:18:00,30.8,26.9,29.82,North,-999,-999.0,-999.0,80,-99.99,,,-99.99,Homeseer,2013-01-05 12:18:00,
2013-01-05 07:24:00,30.6,27.0,29.83,North,-999,-999.0,-999.0,81,-99.99,,,-99.99,Homeseer,2013-01-05 12:24:00,
2013-01-05 07:29:00,30.6,27.2,29.83,North,-999,-999.0,-999.0,82,-99.99,,,-99.99,Homeseer,2013-01-05 12:29:00,
2013-01-05 07:35:00,30.9,27.0,29.83,North,-999,-999.0,-999.0,80,-99.99,,,-99.99,Homeseer,2013-01-05 12:35:00,
2013-01-05 07:40:00,31.1,27.2,29.84,North,-999,-999.0,-999.0,80,-99.99,,,-99.99,Homeseer,2013-01-05 12:40:00,
2013-01-05 07:45:00,31.2,27.3,29.84,North,-999,-999.0,-999.0,80,-99.99,,,-99.99,Homeseer,2013-01-05 12:45:00,
2013-01-05 07:50:00,31.4,27.3,29.85,North,-999,-999.0,-999.0,79,-99.99,,,-99.99,Homeseer,2013-01-05 12:50:00,
2013-01-05 07:55:00,31.6,27.5,29.85,North,-999,-999.0,-999.0,79,-99.99,,,-99.99,Homeseer,2013-01-05 12:55:00,
2013-01-05 08:00:00,31.7,27.6,29.86,North,-999,-999.0,-999.0,79,-99.99,,,-99.99,Homeseer,2013-01-05 13:00:00,
2013-01-05 08:05:00,31.8,27.7,29.87,North,-999,-999.0,-999.0,79,-99.99,,,-99.99,Homeseer,2013-01-05 13:05:00,
2013-01-05 08:10:00,31.9,27.6,29.87,North,-999,-999.0,-999.0,78,-99.99,,,-99.99,Homeseer,2013-01-05 13:10:00,
2013-01-05 08:16:00,32.3,28.0,29.88,North,-999,-999.0,-999.0,78,-99.99,,,-99.99,Homeseer,2013-01-05 13:16:00,
2013-01-05 08:21:00,32.7,28.1,29.89,North,-999,-999.0,-999.0,77,-99.99,,,-99.99,Homeseer,2013-01-05 13:21:00,
2013-01-05 08:26:00,32.8,28.2,29.89,North,-999,-999.0,-999.0,77,-99.99,,,-99.99,Homeseer,2013-01-05 13:26:00,
2013-01-05 08:32:00,33.1,28.3,29.89,North,-999,-999.0,-999.0,76,-99.99,,,-99.99,Homeseer,2013-01-05 13:32:00,
2013-01-05 08:37:00,33.4,28.4,29.89,North,-999,-999.0,-999.0,75,-99.99,,,-99.99,Homeseer,2013-01-05 13:37:00,
2013-01-05 08:43:00,34.2,28.9,29.90,North,-999,-999.0,-999.0,74,-99.99,,,-99.99,Homeseer,2013-01-05 13:43:00,
2013-01-05 08:48:00,34.6,28.8,29.91,North,-999,-999.0,-999.0,72,-99.99,,,-99.99,Homeseer,2013-01-05 13:48:00,
2013-01-05 08:53:00,34.9,29.1,29.91,North,-999,-999.0,-999.0,72,-99.99,,,-99.99,Homeseer,2013-01-05 13:53:00,
2013-01-05 08:59:00,35.7,29.4,29.91,North,-999,-999.0,-999.0,70,-99.99,,,-99.99,Homeseer,2013-01-05 13:59:00,
2013-01-05 09:04:00,36.4,30.0,29.92,North,-999,-999.0,-999.0,70,-99.99,,,-99.99,Homeseer,2013-01-05 14:04:00,
2013-01-05 09:09:00,36.5,29.9,29.93,North,-999,-999.0,-999.0,69,-99.99,,,-99.99,Homeseer,2013-01-05 14:09:00,
2013-01-05 09:14:00,37.0,30.1,29.93,North,-999,-999.0,-999.0,68,-99.99,,,-99.99,Homeseer,2013-01-05 14:14:00,
2013-01-05 09:19:00,37.0,29.9,29.93,North,-999,-999.0,-999.0,67,-99.99,,,-99.99,Homeseer,2013-01-05 14:19:00,
2013-01-05 09:24:00,37.5,30.1,29.95,North,-999,-999.0,-999.0,66,-99.99,,,-99.99,Homeseer,2013-01-05 14:24:00,
2013-01-05 09:30:00,37.5,30.1,29.97,North,-999,-999.0,-999.0,66,-99.99,,,-99.99,Homeseer,2013-01-05 14:30:00,
2013-01-05 09:35:00,37.5,29.8,29.98,North,-999,-999.0,-999.0,65,-99.99,,,-99.99,Homeseer,2013-01-05 14:35:00,
2013-01-05 09:40:00,37.6,29.9,29.98,North,-999,-999.0,-999.0,65,-99.99,,,-99.99,Homeseer,2013-01-05 14:40:00,
2013-01-05 09:45:00,38.1,30.4,29.99,North,-999,-999.0,-999.0,65,-99.99,,,-99.99,Homeseer,2013-01-05 14:45:00,
2013-01-05 09:50:00,38.4,30.4,29.99,North,-999,-999.0,-999.0,64,-99.99,,,-99.99,Homeseer,2013-01-05 14:50:00,
2013-01-05 09:55:00,38.9,30.6,29.99,North,-999,-999.0,-999.0,63,-99.99,,,-99.99,Homeseer,2013-01-05 14:55:00,
2013-01-05 10:00:00,38.9,30.3,29.99,North,-999,-999.0,-999.0,62,-99.99,,,-99.99,Homeseer,2013-01-05 15:00:00,
2013-01-05 10:05:00,38.9,29.7,30.00,North,-999,-999.0,-999.0,60,-99.99,,,-99.99,Homeseer,2013-01-05 15:05:00,
2013-01-05 10:10:00,38.9,29.4,30.01,North,-999,-999.0,-999.0,59,-99.99,,,-99.99,Homeseer,2013-01-05 15:10:00,
2013-01-05 10:15:00,39.1,29.3,30.01,North,-999,-999.0,-999.0,58,-99.99,,,-99.99,Homeseer,2013-01-05 15:15:00,
2013-01-05 10:20:00,39.9,30.1,30.01,North,-999,-999.0,-999.0,58,-99.99,,,-99.99,Homeseer,2013-01-05 15:20:00,
2013-01-05 10:25:00,40.3,30.4,30.01,North,-999,-999.0,-999.0,58,-99.99,,,-99.99,Homeseer,2013-01-05 15:25:00,
2013-01-05 10:30:00,40.4,29.9,30.01,North,-999,-999.0,-999.0,56,-99.99,,,-99.99,Homeseer,2013-01-05 15:30:00,
2013-01-05 10:35:00,40.3,29.2,30.02,North,-999,-999.0,-999.0,54,-99.99,,,-99.99,Homeseer,2013-01-05 15:35:00,
2013-01-05 10:40:00,40.7,29.2,30.02,North,-999,-999.0,-999.0,53,-99.99,,,-99.99,Homeseer,2013-01-05 15:40:00,
2013-01-05 10:45:00,40.8,29.3,30.01,North,-999,-999.0,-999.0,53,-99.99,,,-99.99,Homeseer,2013-01-05 15:45:00,
2013-01-05 10:50:00,41.1,28.9,30.02,North,-999,-999.0,-999.0,51,-99.99,,,-99.99,Homeseer,2013-01-05 15:50:00,
2013-01-05 10:55:00,41.8,29.9,30.02,North,-999,-999.0,-999.0,52,-99.99,,,-99.99,Homeseer,2013-01-05 15:55:00,
2013-01-05 11:00:00,41.6,29.4,30.02,North,-999,-999.0,-999.0,51,-99.99,,,-99.99,Homeseer,2013-01-05 16:00:00,
2013-01-05 11:05:00,42.2,29.6,30.02,North,-999,-999.0,-999.0,50,-99.99,,,-99.99,Homeseer,2013-01-05 16:05:00,
2013-01-05 11:10:00,42.8,30.8,30.01,North,-999,-999.0,-999.0,52,-99.99,,,-99.99,Homeseer,2013-01-05 16:10:00,
2013-01-05 11:15:00,42.9,29.2,30.01,North,-999,-999.0,-999.0,47,-99.99,,,-99.99,Homeseer,2013-01-05 16:15:00,
2013-01-05 11:20:00,42.7,30.1,30.01,North,-999,-999.0,-999.0,50,-99.99,,,-99.99,Homeseer,2013-01-05 16:20:00,
2013-01-05 11:25:00,42.6,29.3,30.01,North,-999,-999.0,-999.0,48,-99.99,,,-99.99,Homeseer,2013-01-05 16:25:00,
2013-01-05 11:30:00,43.1,29.4,30.01,North,-999,-999.0,-999.0,47,-99.99,,,-99.99,Homeseer,2013-01-05 16:30:00,
2013-01-05 11:35:00,43.2,28.7,30.01,North,-999,-999.0,-999.0,45,-99.99,,,-99.99,Homeseer,2013-01-05 16:35:00,
2013-01-05 11:40:00,43.5,28.6,30.02,North,-999,-999.0,-999.0,44,-99.99,,,-99.99,Homeseer,2013-01-05 16:40:00,
2013-01-05 11:45:00,43.9,29.7,30.02,North,-999,-999.0,-999.0,46,-99.99,,,-99.99,Homeseer,2013-01-05 16:45:00,
2013-01-05 11:50:00,43.4,27.3,30.01,North,-999,-999.0,-999.0,41,-99.99,,,-99.99,Homeseer,2013-01-05 16:50:00,
2013-01-05 11:55:00,43.7,28.8,30.02,North,-999,-999.0,-999.0,44,-99.99,,,-99.99,Homeseer,2013-01-05 16:55:00,
2013-01-05 12:00:00,43.9,29.3,30.03,North,-999,-999.0,-999.0,45,-99.99,,,-99.99,Homeseer,2013-01-05 17:00:00,
2013-01-05 12:05:00,43.8,29.6,30.03,North,-999,-999.0,-999.0,46,-99.99,,,-99.99,Homeseer,2013-01-05 17:05:00,
2013-01-05 12:10:00,43.7,29.1,30.03,North,-999,-999.0,-999.0,45,-99.99,,,-99.99,Homeseer,2013-01-05 17:10:00,
2013-01-05 12:15:00,43.4,28.5,30.03,North,-999,-999.0,-999.0,44,-99.99,,,-99.99,Homeseer,2013-01-05 17:15:00,
2013-01-05 12:20:00,43.5,26.9,30.03,North,-999,-999.0,-999.0,40,-99.99,,,-99.99,Homeseer,2013-01-05 17:20:00,
2013-01-05 12:25:00,43.8,29.6,30.03,North,-999,-999.0,-999.0,46,-99.99,,,-99.99,Homeseer,2013-01-05 17:25:00,
2013-01-05 12:30:00,43.2,28.3,30.03,North,-999,-999.0,-999.0,44,-99.99,,,-99.99,Homeseer,2013-01-05 17:30:00,
2013-01-05 12:35:00,43.2,29.4,30.03,North,-999,-999.0,-999.0,47,-99.99,,,-99.99,Homeseer,2013-01-05 17:35:00,
2013-01-05 12:40:00,42.8,27.9,30.02,North,-999,-999.0,-999.0,44,-99.99,,,-99.99,Homeseer,2013-01-05 17:40:00,
2013-01-05 12:45:00,42.8,28.3,30.02,North,-999,-999.0,-999.0,45,-99.99,,,-99.99,Homeseer,2013-01-05 17:45:00,
2013-01-05 12:50:00,42.6,28.9,30.03,North,-999,-999.0,-999.0,47,-99.99,,,-99.99,Homeseer,2013-01-05 17:50:00,
2013-01-05 12:55:00,42.7,29.0,30.04,North,-999,-999.0,-999.0,47,-99.99,,,-99.99,Homeseer,2013-01-05 17:55:00,
2013-01-05 13:00:00,42.7,29.0,30.05,North,-999,-999.0,-999.0,47,-99.99,,,-99.99,Homeseer,2013-01-05 18:00:00,
2013-01-05 13:05:00,43.1,29.0,30.05,North,-999,-999.0,-999.0,46,-99.99,,,-99.99,Homeseer,2013-01-05 18:05:00,
2013-01-05 13:10:00,42.6,27.4,30.04,North,-999,-999.0,-999.0,43,-99.99,,,-99.99,Homeseer,2013-01-05 18:10:00,
2013-01-05 13:15:00,42.6,28.5,30.04,North,-999,-999.0,-999.0,46,-99.99,,,-99.99,Homeseer,2013-01-05 18:15:00,
2013-01-05 13:20:00,42.5,28.8,30.03,North,-999,-999.0,-999.0,47,-99.99,,,-99.99,Homeseer,2013-01-05 18:20:00,
2013-01-05 13:25:00,42.1,27.3,30.04,North,-999,-999.0,-999.0,44,-99.99,,,-99.99,Homeseer,2013-01-05 18:25:00,
2013-01-05 13:30:00,42.4,27.6,30.04,North,-999,-999.0,-999.0,44,-99.99,,,-99.99,Homeseer,2013-01-05 18:30:00,
2013-01-05 13:35:00,42.5,27.3,30.04,North,-999,-999.0,-999.0,43,-99.99,,,-99.99,Homeseer,2013-01-05 18:35:00,
2013-01-05 13:40:00,42.4,27.2,30.04,North,-999,-999.0,-999.0,43,-99.99,,,-99.99,Homeseer,2013-01-05 18:40:00,
2013-01-05 13:45:00,42.6,28.2,30.05,North,-999,-999.0,-999.0,45,-99.99,,,-99.99,Homeseer,2013-01-05 18:45:00,
2013-01-05 13:50:00,42.0,26.8,30.04,North,-999,-999.0,-999.0,43,-99.99,,,-99.99,Homeseer,2013-01-05 18:50:00,
2013-01-05 13:55:00,41.9,27.5,30.03,North,-999,-999.0,-999.0,45,-99.99,,,-99.99,Homeseer,2013-01-05 18:55:00,
2013-01-05 14:00:00,41.3,27.4,30.03,North,-999,-999.0,-999.0,46,-99.99,,,-99.99,Homeseer,2013-01-05 19:00:00,
2013-01-05 14:05:00,41.1,26.0,30.03,North,-999,-999.0,-999.0,43,-99.99,,,-99.99,Homeseer,2013-01-05 19:05:00,
2013-01-05 14:10:00,41.7,27.3,30.05,North,-999,-999.0,-999.0,45,-99.99,,,-99.99,Homeseer,2013-01-05 19:10:00,
2013-01-05 14:15:00,41.7,27.3,30.05,North,-999,-999.0,-999.0,45,-99.99,,,-99.99,Homeseer,2013-01-05 19:15:00,
2013-01-05 14:20:00,41.7,27.0,30.04,North,-999,-999.0,-999.0,44,-99.99,,,-99.99,Homeseer,2013-01-05 19:20:00,
2013-01-05 14:25:00,41.7,27.7,30.04,North,-999,-999.0,-999.0,46,-99.99,,,-99.99,Homeseer,2013-01-05 19:25:00,
2013-01-05 14:30:00,41.3,26.6,30.03,North,-999,-999.0,-999.0,44,-99.99,,,-99.99,Homeseer,2013-01-05 19:30:00,
2013-01-05 14:35:00,41.0,27.5,30.04,North,-999,-999.0,-999.0,47,-99.99,,,-99.99,Homeseer,2013-01-05 19:35:00,
2013-01-05 14:40:00,41.0,27.1,30.05,North,-999,-999.0,-999.0,46,-99.99,,,-99.99,Homeseer,2013-01-05 19:40:00,
2013-01-05 14:45:00,41.0,27.8,30.05,North,-999,-999.0,-999.0,48,-99.99,,,-99.99,Homeseer,2013-01-05 19:45:00,
2013-01-05 14:50:00,41.3,27.4,30.05,North,-999,-999.0,-999.0,46,-99.99,,,-99.99,Homeseer,2013-01-05 19:50:00,
2013-01-05 14:55:00,41.3,27.7,30.05,North,-999,-999.0,-999.0,47,-99.99,,,-99.99,Homeseer,2013-01-05 19:55:00,
2013-01-05 15:00:00,40.8,26.9,30.05,North,-999,-999.0,-999.0,46,-99.99,,,-99.99,Homeseer,2013-01-05 20:00:00,
2013-01-05 15:05:00,41.1,26.8,30.05,North,-999,-999.0,-999.0,45,-99.99,,,-99.99,Homeseer,2013-01-05 20:05:00,
2013-01-05 15:10:00,41.3,27.0,30.05,North,-999,-999.0,-999.0,45,-99.99,,,-99.99,Homeseer,2013-01-05 20:10:00,
2013-01-05 15:15:00,41.6,27.3,30.06,North,-999,-999.0,-999.0,45,-99.99,,,-99.99,Homeseer,2013-01-05 20:15:00,
2013-01-05 15:20:00,41.3,25.8,30.07,North,-999,-999.0,-999.0,42,-99.99,,,-99.99,Homeseer,2013-01-05 20:20:00,
2013-01-05 15:25:00,41.4,27.1,30.07,North,-999,-999.0,-999.0,45,-99.99,,,-99.99,Homeseer,2013-01-05 20:25:00,
2013-01-05 15:30:00,41.1,27.2,30.07,North,-999,-999.0,-999.0,46,-99.99,,,-99.99,Homeseer,2013-01-05 20:30:00,
2013-01-05 15:35:00,40.6,27.1,30.07,North,-999,-999.0,-999.0,47,-99.99,,,-99.99,Homeseer,2013-01-05 20:35:00,
2013-01-05 15:40:00,40.6,27.4,30.06,North,-999,-999.0,-999.0,48,-99.99,,,-99.99,Homeseer,2013-01-05 20:40:00,
2013-01-05 15:45:00,40.4,27.3,30.07,North,-999,-999.0,-999.0,48,-99.99,,,-99.99,Homeseer,2013-01-05 20:45:00,
2013-01-05 15:50:00,40.4,26.9,30.07,North,-999,-999.0,-999.0,47,-99.99,,,-99.99,Homeseer,2013-01-05 20:50:00,
2013-01-05 15:55:00,40.3,28.9,30.07,North,-999,-999.0,-999.0,53,-99.99,,,-99.99,Homeseer,2013-01-05 20:55:00,
2013-01-05 16:00:00,39.6,26.9,30.09,North,-999,-999.0,-999.0,49,-99.99,,,-99.99,Homeseer,2013-01-05 21:00:00,
2013-01-05 16:05:00,39.6,27.9,30.09,North,-999,-999.0,-999.0,52,-99.99,,,-99.99,Homeseer,2013-01-05 21:05:00,
2013-01-05 16:10:00,39.3,28.6,30.10,North,-999,-999.0,-999.0,55,-99.99,,,-99.99,Homeseer,2013-01-05 21:10:00,
2013-01-05 16:15:00,39.0,28.0,30.11,North,-999,-999.0,-999.0,54,-99.99,,,-99.99,Homeseer,2013-01-05 21:15:00,
2013-01-05 16:20:00,38.3,27.7,30.11,North,-999,-999.0,-999.0,55,-99.99,,,-99.99,Homeseer,2013-01-05 21:20:00,
2013-01-05 16:25:00,37.8,26.9,30.11,North,-999,-999.0,-999.0,54,-99.99,,,-99.99,Homeseer,2013-01-05 21:25:00,
2013-01-05 16:30:00,37.3,27.6,30.12,North,-999,-999.0,-999.0,58,-99.99,,,-99.99,Homeseer,2013-01-05 21:30:00,
2013-01-05 16:35:00,36.6,27.3,30.13,North,-999,-999.0,-999.0,59,-99.99,,,-99.99,Homeseer,2013-01-05 21:35:00,
2013-01-05 16:40:00,36.2,26.3,30.13,North,-999,-999.0,-999.0,57,-99.99,,,-99.99,Homeseer,2013-01-05 21:40:00,
2013-01-05 16:45:00,35.8,26.5,30.14,North,-999,-999.0,-999.0,59,-99.99,,,-99.99,Homeseer,2013-01-05 21:45:00,
2013-01-05 16:50:00,35.4,26.2,30.14,North,-999,-999.0,-999.0,59,-99.99,,,-99.99,Homeseer,2013-01-05 21:50:00,
2013-01-05 16:55:00,35.2,26.5,30.15,North,-999,-999.0,-999.0,61,-99.99,,,-99.99,Homeseer,2013-01-05 21:55:00,
2013-01-05 17:00:00,34.5,26.4,30.14,North,-999,-999.0,-999.0,63,-99.99,,,-99.99,Homeseer,2013-01-05 22:00:00,
2013-01-05 17:05:00,34.0,26.0,30.14,North,-999,-999.0,-999.0,63,-99.99,,,-99.99,Homeseer,2013-01-05 22:05:00,
2013-01-05 17:10:00,33.6,25.3,30.15,North,-999,-999.0,-999.0,62,-99.99,,,-99.99,Homeseer,2013-01-05 22:10:00,
2013-01-05 17:15:00,33.0,24.7,30.15,North,-999,-999.0,-999.0,62,-99.99,,,-99.99,Homeseer,2013-01-05 22:15:00,
2013-01-05 17:20:00,32.8,25.4,30.15,North,-999,-999.0,-999.0,65,-99.99,,,-99.99,Homeseer,2013-01-05 22:20:00,
2013-01-05 17:25:00,32.2,24.5,30.15,North,-999,-999.0,-999.0,64,-99.99,,,-99.99,Homeseer,2013-01-05 22:25:00,
2013-01-05 17:30:00,31.9,24.0,30.15,North,-999,-999.0,-999.0,63,-99.99,,,-99.99,Homeseer,2013-01-05 22:30:00,
2013-01-05 17:35:00,31.8,23.9,30.15,North,-999,-999.0,-999.0,63,-99.99,,,-99.99,Homeseer,2013-01-05 22:35:00,
2013-01-05 17:40:00,31.6,23.4,30.15,North,-999,-999.0,-999.0,62,-99.99,,,-99.99,Homeseer,2013-01-05 22:40:00,
2013-01-05 17:45:00,31.4,24.0,30.15,North,-999,-999.0,-999.0,65,-99.99,,,-99.99,Homeseer,2013-01-05 22:45:00,
2013-01-05 17:50:00,31.0,23.6,30.16,North,-999,-999.0,-999.0,65,-99.99,,,-99.99,Homeseer,2013-01-05 22:50:00,
2013-01-05 17:55:00,30.8,23.2,30.16,North,-999,-999.0,-999.0,64,-99.99,,,-99.99,Homeseer,2013-01-05 22:55:00,
2013-01-05 18:00:00,30.5,23.7,30.17,North,-999,-999.0,-999.0,67,-99.99,,,-99.99,Homeseer,2013-01-05 23:00:00,
2013-01-05 18:05:00,30.5,22.7,30.17,North,-999,-999.0,-999.0,63,-99.99,,,-99.99,Homeseer,2013-01-05 23:05:00,
2013-01-05 18:10:00,29.9,22.9,30.17,North,-999,-999.0,-999.0,66,-99.99,,,-99.99,Homeseer,2013-01-05 23:10:00,
2013-01-05 18:15:00,30.0,23.0,30.18,North,-999,-999.0,-999.0,66,-99.99,,,-99.99,Homeseer,2013-01-05 23:15:00,
2013-01-05 18:20:00,30.0,23.2,30.18,North,-999,-999.0,-999.0,67,-99.99,,,-99.99,Homeseer,2013-01-05 23:20:00,
2013-01-05 18:25:00,29.6,22.8,30.19,North,-999,-999.0,-999.0,67,-99.99,,,-99.99,Homeseer,2013-01-05 23:25:00,
2013-01-05 18:30:00,29.4,22.6,30.19,North,-999,-999.0,-999.0,67,-99.99,,,-99.99,Homeseer,2013-01-05 23:30:00,
2013-01-05 18:35:00,29.3,22.8,30.19,North,-999,-999.0,-999.0,68,-99.99,,,-99.99,Homeseer,2013-01-05 23:35:00,
2013-01-05 18:40:00,29.2,22.2,30.19,North,-999,-999.0,-999.0,66,-99.99,,,-99.99,Homeseer,2013-01-05 23:40:00,
2013-01-05 18:45:00,28.5,22.3,30.19,North,-999,-999.0,-999.0,69,-99.99,,,-99.99,Homeseer,2013-01-05 23:45:00,
2013-01-05 18:50:00,28.3,22.1,30.20,North,-999,-999.0,-999.0,69,-99.99,,,-99.99,Homeseer,2013-01-05 23:50:00,
2013-01-05 18:55:00,28.6,22.6,30.20,North,-999,-999.0,-999.0,70,-99.99,,,-99.99,Homeseer,2013-01-05 23:55:00,
2013-01-05 19:00:00,28.6,22.8,30.21,North,-999,-999.0,-999.0,71,-99.99,,,-99.99,Homeseer,2013-01-06 00:00:00,
2013-01-05 19:05:00,28.3,22.3,30.21,North,-999,-999.0,-999.0,70,-99.99,,,-99.99,Homeseer,2013-01-06 00:05:00,
2013-01-05 19:10:00,28.3,22.1,30.21,North,-999,-999.0,-999.0,69,-99.99,,,-99.99,Homeseer,2013-01-06 00:10:00,
2013-01-05 19:15:00,27.8,22.1,30.21,North,-999,-999.0,-999.0,71,-99.99,,,-99.99,Homeseer,2013-01-06 00:15:00,
2013-01-05 19:20:00,27.8,21.8,30.21,North,-999,-999.0,-999.0,70,-99.99,,,-99.99,Homeseer,2013-01-06 00:20:00,
2013-01-05 19:25:00,27.6,21.9,30.21,North,-999,-999.0,-999.0,71,-99.99,,,-99.99,Homeseer,2013-01-06 00:25:00,
2013-01-05 19:30:00,27.6,22.1,30.21,North,-999,-999.0,-999.0,72,-99.99,,,-99.99,Homeseer,2013-01-06 00:30:00,
2013-01-05 19:35:00,27.6,22.1,30.20,North,-999,-999.0,-999.0,72,-99.99,,,-99.99,Homeseer,2013-01-06 00:35:00,
2013-01-05 19:40:00,27.3,22.5,30.20,North,-999,-999.0,-999.0,75,-99.99,,,-99.99,Homeseer,2013-01-06 00:40:00,
2013-01-05 19:45:00,27.2,21.7,30.20,North,-999,-999.0,-999.0,72,-99.99,,,-99.99,Homeseer,2013-01-06 00:45:00,
2013-01-05 19:50:00,26.9,21.6,30.20,North,-999,-999.0,-999.0,73,-99.99,,,-99.99,Homeseer,2013-01-06 00:50:00,
2013-01-05 19:55:00,26.9,21.6,30.20,North,-999,-999.0,-999.0,73,-99.99,,,-99.99,Homeseer,2013-01-06 00:55:00,
2013-01-05 20:00:00,26.5,21.3,30.20,North,-999,-999.0,-999.0,73,-99.99,,,-99.99,Homeseer,2013-01-06 01:00:00,
2013-01-05 20:05:00,26.7,21.7,30.20,North,-999,-999.0,-999.0,74,-99.99,,,-99.99,Homeseer,2013-01-06 01:05:00,
2013-01-05 20:10:00,26.7,21.2,30.19,North,-999,-999.0,-999.0,72,-99.99,,,-99.99,Homeseer,2013-01-06 01:10:00,
2013-01-05 20:15:00,26.2,21.4,30.19,North,-999,-999.0,-999.0,75,-99.99,,,-99.99,Homeseer,2013-01-06 01:15:00,
2013-01-05 20:20:00,26.4,21.2,30.19,North,-999,-999.0,-999.0,73,-99.99,,,-99.99,Homeseer,2013-01-06 01:20:00,
2013-01-05 20:25:00,26.5,21.7,30.19,North,-999,-999.0,-999.0,75,-99.99,,,-99.99,Homeseer,2013-01-06 01:25:00,
2013-01-05 20:30:00,26.4,21.4,30.19,North,-999,-999.0,-999.0,74,-99.99,,,-99.99,Homeseer,2013-01-06 01:30:00,
2013-01-05 20:35:00,26.3,21.5,30.19,North,-999,-999.0,-999.0,75,-99.99,,,-99.99,Homeseer,2013-01-06 01:35:00,
2013-01-05 20:40:00,26.2,21.2,30.19,North,-999,-999.0,-999.0,74,-99.99,,,-99.99,Homeseer,2013-01-06 01:40:00,
2013-01-05 20:45:00,26.3,21.5,30.20,North,-999,-999.0,-999.0,75,-99.99,,,-99.99,Homeseer,2013-01-06 01:45:00,
2013-01-05 20:50:00,25.9,20.9,30.19,North,-999,-999.0,-999.0,74,-99.99,,,-99.99,Homeseer,2013-01-06 01:50:00,
2013-01-05 20:55:00,25.9,21.1,30.19,North,-999,-999.0,-999.0,75,-99.99,,,-99.99,Homeseer,2013-01-06 01:55:00,
2013-01-05 21:00:00,25.6,21.1,30.19,North,-999,-999.0,-999.0,76,-99.99,,,-99.99,Homeseer,2013-01-06 02:00:00,
2013-01-05 21:05:00,25.5,20.7,30.18,North,-999,-999.0,-999.0,75,-99.99,,,-99.99,Homeseer,2013-01-06 02:05:00,
2013-01-05 21:10:00,25.1,20.8,30.17,North,-999,-999.0,-999.0,77,-99.99,,,-99.99,Homeseer,2013-01-06 02:10:00,
2013-01-05 21:15:00,25.5,21.2,30.18,North,-999,-999.0,-999.0,77,-99.99,,,-99.99,Homeseer,2013-01-06 02:15:00,
2013-01-05 21:20:00,25.5,21.2,30.19,North,-999,-999.0,-999.0,77,-99.99,,,-99.99,Homeseer,2013-01-06 02:20:00,
2013-01-05 21:25:00,25.1,21.0,30.20,North,-999,-999.0,-999.0,78,-99.99,,,-99.99,Homeseer,2013-01-06 02:25:00,
2013-01-05 21:30:00,24.9,21.0,30.19,North,-999,-999.0,-999.0,79,-99.99,,,-99.99,Homeseer,2013-01-06 02:30:00,
2013-01-05 21:35:00,25.0,20.5,30.19,North,-999,-999.0,-999.0,76,-99.99,,,-99.99,Homeseer,2013-01-06 02:35:00,
2013-01-05 21:40:00,24.9,20.6,30.17,North,-999,-999.0,-999.0,77,-99.99,,,-99.99,Homeseer,2013-01-06 02:40:00,
2013-01-05 21:45:00,24.8,20.5,30.18,North,-999,-999.0,-999.0,77,-99.99,,,-99.99,Homeseer,2013-01-06 02:45:00,
2013-01-05 21:50:00,24.8,20.3,30.17,North,-999,-999.0,-999.0,76,-99.99,,,-99.99,Homeseer,2013-01-06 02:50:00,
2013-01-05 21:55:00,24.6,20.3,30.18,North,-999,-999.0,-999.0,77,-99.99,,,-99.99,Homeseer,2013-01-06 02:55:00,
2013-01-05 22:00:00,24.7,20.4,30.17,North,-999,-999.0,-999.0,77,-99.99,,,-99.99,Homeseer,2013-01-06 03:00:00,
2013-01-05 22:05:00,24.6,20.3,30.17,North,-999,-999.0,-999.0,77,-99.99,,,-99.99,Homeseer,2013-01-06 03:05:00,
2013-01-05 22:10:00,24.4,20.1,30.17,North,-999,-999.0,-999.0,77,-99.99,,,-99.99,Homeseer,2013-01-06 03:10:00,
2013-01-05 22:15:00,24.0,19.9,30.18,North,-999,-999.0,-999.0,78,-99.99,,,-99.99,Homeseer,2013-01-06 03:15:00,
2013-01-05 22:20:00,24.0,20.1,30.18,North,-999,-999.0,-999.0,79,-99.99,,,-99.99,Homeseer,2013-01-06 03:20:00,
2013-01-05 22:25:00,23.6,20.1,30.19,North,-999,-999.0,-999.0,81,-99.99,,,-99.99,Homeseer,2013-01-06 03:25:00,
2013-01-05 22:30:00,23.7,19.6,30.19,North,-999,-999.0,-999.0,78,-99.99,,,-99.99,Homeseer,2013-01-06 03:30:00,
2013-01-05 22:35:00,23.3,19.7,30.19,North,-999,-999.0,-999.0,80,-99.99,,,-99.99,Homeseer,2013-01-06 03:35:00,
2013-01-05 22:40:00,23.2,19.4,30.20,North,-999,-999.0,-999.0,79,-99.99,,,-99.99,Homeseer,2013-01-06 03:40:00,
2013-01-05 22:45:00,23.1,19.3,30.20,North,-999,-999.0,-999.0,79,-99.99,,,-99.99,Homeseer,2013-01-06 03:45:00,
2013-01-05 22:50:00,23.0,19.4,30.19,North,-999,-999.0,-999.0,80,-99.99,,,-99.99,Homeseer,2013-01-06 03:50:00,
2013-01-05 22:55:00,23.1,19.3,30.17,North,-999,-999.0,-999.0,79,-99.99,,,-99.99,Homeseer,2013-01-06 03:55:00,
2013-01-05 23:00:00,22.9,19.3,30.16,North,-999,-999.0,-999.0,80,-99.99,,,-99.99,Homeseer,2013-01-06 04:00:00,
2013-01-05 23:05:00,23.0,19.2,30.16,North,-999,-999.0,-999.0,79,-99.99,,,-99.99,Homeseer,2013-01-06 04:05:00,
2013-01-05 23:10:00,23.3,19.7,30.15,North,-999,-999.0,-999.0,80,-99.99,,,-99.99,Homeseer,2013-01-06 04:10:00,
2013-01-05 23:15:00,23.4,19.8,30.14,North,-999,-999.0,-999.0,80,-99.99,,,-99.99,Homeseer,2013-01-06 04:15:00,
2013-01-05 23:20:00,23.7,20.0,30.13,North,-999,-999.0,-999.0,80,-99.99,,,-99.99,Homeseer,2013-01-06 04:20:00,
2013-01-05 23:25:00,24.0,20.3,30.13,North,-999,-999.0,-999.0,80,-99.99,,,-99.99,Homeseer,2013-01-06 04:25:00,
2013-01-05 23:30:00,24.1,20.4,30.14,North,-999,-999.0,-999.0,80,-99.99,,,-99.99,Homeseer,2013-01-06 04:30:00,
2013-01-05 23:35:00,24.2,20.5,30.14,North,-999,-999.0,-999.0,80,-99.99,,,-99.99,Homeseer,2013-01-06 04:35:00,
2013-01-05 23:40:00,24.1,20.4,30.14,North,-999,-999.0,-999.0,80,-99.99,,,-99.99,Homeseer,2013-01-06 04:40:00,
2013-01-05 23:45:00,24.0,20.3,30.15,North,-999,-999.0,-999.0,80,-99.99,,,-99.99,Homeseer,2013-01-06 04:45:00,
2013-01-05 23:50:00,24.1,20.6,30.13,North,-999,-999.0,-999.0,81,-99.99,,,-99.99,Homeseer,2013-01-06 04:50:00,
2013-01-05 23:55:00,24.1,20.6,30.13,North,-999,-999.0,-999.0,81,-99.99,,,-99.99,Homeseer,2013-01-06 04:55:00,